Flight Track Log - Related Links

Times and Time Zones

All times are in EDT time to prevent confusion due to time zone crossing. See the CHQ5098 flight status page for this flight to view local times or setup timezone preferences in your user account.

Time Position Orientation Groundspeed Altitude Reporting Facility
EDT Latitude Longitude Course Direction KTS MPH feet Rate Location/Type
Fri 10:36:07 PM 42.0333 -87.9667 352° North 175 201 3,900  Level Chicago TRACON
Fri 10:37:00 PM 42.1918 -87.9709 340° North  Level FlightAware Approximate
Fri 10:37:01 PM 42.0667 -88.0167 312° West 206 237 5,000  Level Chicago TRACON
Fri 10:38:00 PM 42.2668 -87.9959 350° North  Level FlightAware Approximate
Fri 10:39:00 PM 42.3431 -88.0149 350° North  Level FlightAware Approximate
Fri 10:39:03 PM 42.1833 -88.0383 352° North 235 270 6,700  Level Chicago Center
Fri 10:40:00 PM 42.4161 -88.0497 340° North  Level FlightAware Approximate
Fri 10:40:04 PM 42.2486 -88.0325 North 236 272 9,400  Level Chicago Center
Fri 10:41:00 PM 42.4970 -88.0661 352° North  Level FlightAware Approximate
Fri 10:41:05 PM 42.3208 -88.0250 North 257 296 11,700  Level Chicago Center
Fri 10:42:06 PM 42.4017 -88.0158 North 278 320 14,000 2,066 Climbing Chicago Center
Fri 10:43:07 PM 42.4831 -88.0081 North 292 336 15,900 1,820 Climbing Chicago Center
Fri 10:44:08 PM 42.5694 -88.0100 359° North 307 353 17,700 1,770 Climbing Chicago Center
Fri 10:45:09 PM 42.6586 -88.0197 355° North 319 367 19,500 1,033 Climbing Chicago Center
Fri 10:46:10 PM 42.7714 -88.0253 358° North 351 404 19,800 -98 Climbing Chicago Center
Fri 10:47:12 PM 42.8728 -88.0317 357° North 362 417 19,300 -683 Descending Chicago Center
Fri 10:48:13 PM 42.9714 -88.0372 358° North 356 410 18,400 -934 Descending Chicago Center
Fri 10:49:14 PM 43.0714 -88.0436 357° North 359 413 17,400 -984 Descending Chicago Center
Fri 10:50:15 PM 43.1725 -88.0494 358° North 363 418 16,400 -984 Descending Chicago Center
Fri 10:51:16 PM 43.2753 -88.0550 358° North 370 426 15,400 -984 Descending Chicago Center
Fri 10:52:17 PM 43.3769 -88.0608 358° North 368 423 14,400 -984 Descending Chicago Center
Fri 10:53:18 PM 43.4744 -88.0683 357° North 359 413 13,400 -689 Descending Chicago Center
Fri 10:54:19 PM 43.5833 -88.0744 358° North 342 394 13,000 -246 Descending Chicago Center
Fri 10:55:20 PM 43.6758 -88.0806 357° North 335 386 12,900 -197 Descending Chicago Center
Fri 10:56:21 PM 43.7692 -88.0875 357° North 336 387 12,600 -639 Descending Chicago Center
Fri 10:57:22 PM 43.8558 -88.0936 357° North 319 367 11,600 -1,131 Descending Chicago Center
Fri 10:58:23 PM 43.9247 -88.0956 359° North 261 300 10,300 -1,537 Descending Chicago Center
Fri 10:59:23 PM 43.9900 -88.1000 357° North 241 277 8,500 -1,756 Descending Minneapolis Center
Fri 11:00:26 PM 44.0528 -88.1047 357° North 231 266 6,700 -1,694 Descending Minneapolis Center
Fri 11:01:27 PM 44.1172 -88.1081 358° North 230 265 5,000 -1,525 Descending Minneapolis Center
Fri 11:02:28 PM 44.1769 -88.1125 357° North 222 255 3,600 -984 Descending Minneapolis Center
Fri 11:03:29 PM 44.2456 -88.1178 357° North 216 249 3,000 -293 Descending Minneapolis Center
Fri 11:04:31 PM 44.3011 -88.1211 358° North 208 239 3,000  Level Minneapolis Center

Login

Don't have an account? Register now (free) for customized features, flight alerts, and more!